ENNO

Notodden Airport

Norway
METAR ENNO 241250Z 27012KT CAVOK 13/M03 Q1021 WIND THR30
Observed Flight Rules
Sep-24 @ 12:50 UTC (45 minutes ago) Visual Flight Rules
Wind Visibility Clouds
270° at 12 knots 10,000+ meters
  • Clear skies
Temperatures Readings
Current 13°C / 55°F
Dewpoint -3°C / 27°F
Humidity 33%
Altimeter 30.15" Hg
Pressure 1021 hPa
Elevation 19
METAR ENNO 241250Z 27012KT CAVOK 13/M03 Q1021 WIND THR30
Observed Flight Rules
Sep-24 @ 12:50 UTC
(45 minutes ago)
VFR
Wind Visibility
270° at 12 knots 10,000+ meters
Clouds
  • Clear skies
Temperature Dewpoint
13°C / 55°F -3°C / 27°F
Humidity Altimeter Pressure
33% 30.15" Hg 1021 hPa